Middle Georgia Regional Airport
KMCN : now visible

Airfield :











YOU CAN JOIN US ON...

 
LOGIN :

Register | Disclaimer

   EN    FR    IT 

 









Legend :    VFR   Marginal VFR   IFR   Intensive IFR   Very Intensive IFR
Visi :
Ceiling :
>= 8 km
>= 3000ft
5 to 8 km
1000 to 3000 ft
1500m to 5 km
500 to 1000 ft
800 to 1500m
200 to 500 ft
< 800m
< 200 ft
Symbols :   Thunderstorms  Fog  Heavy snow  Heavy precipitations  Wind > 20 kt







- Airport Elevation : 354 ft
- IATA code : MCN


KMCN - Middle Georgia Regional

CURRENT METAR :
  • 182005Z 33015G24KT 10SM BKN070 OVC085 30/21 A3002 RMK AO2 LTG DSNT W AND NW T03000211

EXPIRED METARs :
  • 181953Z 32011KT 10SM VCTS BKN075 BKN100 33/21 A3001 RMK AO2 LTG DSNT W-NE SLP157 T03280211
  • 181941Z 27006G17KT 10SM VCTS FEW070 SCT100 37/19 A3000 RMK AO2 LTG DSNT W-N T03670189
  • 181853Z 28012G17KT 10SM CLR 37/19 A3001 RMK AO2 LTG DSNT N SLP157 T03720194
  • 181753Z 26007G16KT 220V300 10SM FEW055 FEW075 FEW100 37/19 A3004 RMK AO2 LTG DSNT NW SLP165 T03670189 10367 20250 58012

TAF KMCN
Valid from the 18 at 18:00 until the 19 at 18:00 UTC


181727Z 1818/1918 27008KT P6SM VCSH BKN050
TEMPO 1819/1823 VRB15G25KT 4SM TSRA BKN030CB
FM190200 25004KT P6SM VCSH OVC050
FM190400 VRB03KT P6SM SCT050 BKN250
FM190800 00000KT P6SM SCT250
FM191500 28004KT P6SM SCT035 SCT250
KZTL FIR / North America



MET'MAP, your aeronautical weather chart ! - Copyright ORBIFLY December 2007 - Disclaimer

ORBIFLY MET'MAP TEAM :

Programming & Development : Alexandra Zaïnal
Concept & Development : Baudouin d'Aumeries
Co-Development & Prog : Marc-Olivier Méhu
Technical & hardware support : Manuel Goepfert

Contact : metmap@orbifly.com




SOURCES & CREDITS :

   NOAA       Earth
Advisory